68248 XUMB-XUBI

Flight info

Callsign 68248
Flight time N/A
Altitude 25000
Route INLEN T630 ROKUR
Aircraft A148/M-SDFGIRWY/LB1

Departure

Time 2026-04-12 14:49
Airport Kubinka Air Base (XUMB)

Arrival

Time N/A
Airport XUBI
Time Latitude Longitude Altitude Speed Heading
2026-04-12 14:18 55.61223 36.64138 626 ft 0 kts 326°
2026-04-12 14:42 55.61223 36.64139 619 ft 1 kts 326°
2026-04-12 14:43 55.61211 36.64166 622 ft 4 kts 269°
2026-04-12 14:43 55.61220 36.64209 620 ft 4 kts 240°
2026-04-12 14:43 55.61223 36.64220 629 ft 3 kts 240°
2026-04-12 14:46 55.61217 36.64208 620 ft 4 kts 226°
2026-04-12 14:47 55.61185 36.64148 616 ft 10 kts 226°
2026-04-12 14:47 55.61127 36.64031 619 ft 16 kts 230°
2026-04-12 14:47 55.61039 36.63847 616 ft 22 kts 230°
2026-04-12 14:47 55.60938 36.63671 615 ft 19 kts 190°
2026-04-12 14:48 55.60855 36.63711 614 ft 19 kts 153°
2026-04-12 14:48 55.60744 36.63806 620 ft 17 kts 153°
2026-04-12 14:48 55.60738 36.63916 616 ft 4 kts 50°
2026-04-12 14:48 55.60760 36.63962 623 ft 25 kts 50°
2026-04-12 14:49 55.61050 36.64573 621 ft 102 kts 50°
2026-04-12 14:49 55.61628 36.65803 754 ft 144 kts 50°
2026-04-12 14:49 55.62273 36.67139 1291 ft 142 kts 51°
2026-04-12 14:49 55.62940 36.68453 1693 ft 149 kts 49°
2026-04-12 14:50 55.63691 36.69902 1946 ft 167 kts 43°
2026-04-12 14:50 55.64808 36.70518 2351 ft 177 kts
2026-04-12 14:50 55.66092 36.70433 2580 ft 196 kts 359°
2026-04-12 14:50 55.67586 36.70251 2428 ft 232 kts 357°
2026-04-12 14:51 55.69171 36.70007 2583 ft 231 kts 357°
2026-04-12 14:51 55.70811 36.69388 2843 ft 256 kts 334°
2026-04-12 14:51 55.72101 36.67182 3132 ft 263 kts 298°
2026-04-12 14:51 55.72515 36.64056 3428 ft 264 kts 265°
2026-04-12 14:52 55.71948 36.61014 3712 ft 261 kts 233°
2026-04-12 14:52 55.70588 36.58842 3955 ft 270 kts 211°
2026-04-12 14:52 55.69030 36.57119 4001 ft 259 kts 210°
2026-04-12 14:52 55.67560 36.55241 4012 ft 263 kts 218°
2026-04-12 14:53 55.66252 36.53036 4017 ft 263 kts 225°
2026-04-12 14:53 55.65091 36.50532 4035 ft 264 kts 232°
2026-04-12 14:53 55.63990 36.47967 4240 ft 259 kts 221°
2026-04-12 14:53 55.62418 36.46606 4518 ft 255 kts 184°
2026-04-12 14:54 55.60705 36.47133 4808 ft 254 kts 150°
2026-04-12 14:54 55.59415 36.49304 4981 ft 258 kts 119°
2026-04-12 14:54 55.58767 36.52201 5015 ft 255 kts 108°
2026-04-12 14:54 55.58269 36.55200 5021 ft 253 kts 105°
2026-04-12 14:55 55.57989 36.58245 5136 ft 251 kts 86°
2026-04-12 14:55 55.58340 36.61280 5422 ft 255 kts 77°
2026-04-12 14:55 55.58768 36.64319 5690 ft 255 kts 77°
2026-04-12 14:55 55.59228 36.67431 5906 ft 270 kts 76°
2026-04-12 14:56 55.59711 36.70567 6642 ft 261 kts 76°
2026-04-12 14:56 55.60192 36.73686 7089 ft 265 kts 76°
2026-04-12 14:56 55.60672 36.76847 7502 ft 267 kts 77°
2026-04-12 14:56 55.61139 36.80039 7909 ft 269 kts 77°
2026-04-12 14:57 55.61599 36.83241 8290 ft 271 kts 77°
2026-04-12 14:57 55.62058 36.86483 8639 ft 273 kts 77°
2026-04-12 14:57 55.62521 36.89751 9000 ft 275 kts 77°
2026-04-12 14:57 55.62985 36.93041 9371 ft 276 kts 77°
2026-04-12 14:58 55.63450 36.96351 9744 ft 278 kts 78°
2026-04-12 14:58 55.63917 36.99684 10164 ft 278 kts 77°
2026-04-12 14:58 55.64335 37.03156 10429 ft 299 kts 85°
2026-04-12 14:58 55.64435 37.06940 10790 ft 314 kts 91°
2026-04-12 14:59 55.64436 37.10793 11361 ft 320 kts 91°
2026-04-12 14:59 55.64417 37.14755 11964 ft 324 kts 92°
2026-04-12 14:59 55.64368 37.18775 12535 ft 327 kts 96°
2026-04-12 14:59 55.63972 37.22484 13042 ft 329 kts 108°
2026-04-12 15:00 55.62580 37.30279 13849 ft 334 kts 110°
2026-04-12 15:00 55.61842 37.34189 14212 ft 336 kts 110°
2026-04-12 15:00 55.61090 37.38111 14471 ft 337 kts 111°
2026-04-12 15:01 55.60328 37.42036 14757 ft 337 kts 111°
2026-04-12 15:01 55.59577 37.45969 15031 ft 338 kts 110°
2026-04-12 15:01 55.58836 37.49921 15365 ft 339 kts 110°
2026-04-12 15:01 55.58096 37.53879 15802 ft 340 kts 110°
2026-04-12 15:02 55.57357 37.57862 16230 ft 342 kts 108°
2026-04-12 15:02 55.57082 37.62032 16627 ft 348 kts 84°
2026-04-12 15:02 55.57871 37.66094 17025 ft 354 kts 63°
2026-04-12 15:02 55.59138 37.69844 17437 ft 357 kts 60°
2026-04-12 15:03 55.60453 37.73574 17840 ft 359 kts 59°
2026-04-12 15:03 55.61794 37.77316 18240 ft 361 kts 59°
2026-04-12 15:03 55.63129 37.81094 18624 ft 363 kts 60°
2026-04-12 15:03 55.64445 37.84928 18971 ft 365 kts 62°
2026-04-12 15:04 55.65597 37.88856 19318 ft 365 kts 68°
2026-04-12 15:04 55.66572 37.93014 19676 ft 366 kts 71°
2026-04-12 15:04 55.67489 37.97228 20042 ft 368 kts 72°
2026-04-12 15:04 55.68387 38.01487 20401 ft 369 kts 72°
2026-04-12 15:05 55.69292 38.05767 20754 ft 371 kts 72°
2026-04-12 15:05 55.70202 38.10064 21117 ft 373 kts 71°
2026-04-12 15:05 55.71136 38.14365 21461 ft 375 kts 71°
2026-04-12 15:05 55.72077 38.18691 21796 ft 377 kts 71°
2026-04-12 15:06 55.73023 38.23032 22138 ft 378 kts 71°
2026-04-12 15:06 55.73972 38.27395 22471 ft 380 kts 71°
2026-04-12 15:06 55.74939 38.31770 22788 ft 382 kts 69°
2026-04-12 15:06 55.76031 38.36080 23108 ft 384 kts 66°
2026-04-12 15:07 55.77204 38.40368 23441 ft 386 kts 66°
2026-04-12 15:07 55.78399 38.44648 23731 ft 389 kts 65°
2026-04-12 15:07 55.79618 38.48983 23940 ft 392 kts 65°
2026-04-12 15:07 55.80820 38.53331 24245 ft 392 kts 66°
2026-04-12 15:08 55.82006 38.57686 24572 ft 391 kts 66°
2026-04-12 15:08 55.83186 38.62046 24893 ft 391 kts 66°
2026-04-12 15:08 55.84344 38.66342 25154 ft 389 kts 66°
2026-04-12 15:08 55.85517 38.70711 25273 ft 392 kts 66°
2026-04-12 15:09 55.86675 38.75031 25311 ft 383 kts 66°
2026-04-12 15:09 55.87820 38.79309 25311 ft 384 kts 66°
2026-04-12 15:09 55.88971 38.83616 25322 ft 385 kts 66°
2026-04-12 15:09 55.90119 38.87923 25318 ft 385 kts 66°
2026-04-12 15:10 55.91267 38.92237 25319 ft 385 kts 66°
2026-04-12 15:10 55.92415 38.96557 25322 ft 386 kts 66°
2026-04-12 15:10 55.93564 39.00880 25322 ft 386 kts 66°
2026-04-12 15:10 55.94712 39.05210 25323 ft 386 kts 66°
2026-04-12 15:11 55.95858 39.09542 25329 ft 386 kts 66°
2026-04-12 15:11 55.97004 39.13884 25327 ft 387 kts 66°
2026-04-12 15:11 55.98149 39.18232 25328 ft 387 kts 66°
2026-04-12 15:11 55.99295 39.22587 25326 ft 388 kts 66°
2026-04-12 15:12 56.00438 39.26944 25325 ft 388 kts 66°
2026-04-12 15:12 56.01580 39.31307 25328 ft 387 kts 66°
2026-04-12 15:12 56.02721 39.35668 25327 ft 387 kts 66°
2026-04-12 15:12 56.03861 39.40042 25330 ft 389 kts 66°
2026-04-12 15:13 56.05001 39.44427 25328 ft 389 kts 66°
2026-04-12 15:13 56.06142 39.48816 25327 ft 389 kts 66°
2026-04-12 15:13 56.07295 39.53195 25331 ft 389 kts 64°
2026-04-12 15:13 56.08600 39.57438 25331 ft 390 kts 60°
2026-04-12 15:14 56.10030 39.61569 25332 ft 390 kts 58°
2026-04-12 15:14 56.11507 39.65655 25337 ft 391 kts 58°
2026-04-12 15:14 56.12998 39.69720 25335 ft 391 kts 58°
2026-04-12 15:14 56.14496 39.73782 25339 ft 391 kts 58°
2026-04-12 15:15 56.15981 39.77870 25337 ft 391 kts 58°
2026-04-12 15:15 56.17436 39.81916 25339 ft 391 kts 58°
2026-04-12 15:15 56.18926 39.86077 25340 ft 391 kts 58°
2026-04-12 15:15 56.20397 39.90193 25338 ft 392 kts 58°
2026-04-12 15:16 56.21850 39.94265 25337 ft 392 kts 58°
2026-04-12 15:16 56.23318 39.98386 25340 ft 392 kts 58°
2026-04-12 15:16 56.24787 40.02524 25344 ft 392 kts 59°
2026-04-12 15:16 56.26248 40.06668 25339 ft 392 kts 59°
2026-04-12 15:17 56.27706 40.10820 25344 ft 392 kts 59°
2026-04-12 15:17 56.29169 40.14973 25346 ft 392 kts 59°
2026-04-12 15:17 56.30631 40.19120 25345 ft 392 kts 59°
2026-04-12 15:17 56.32087 40.23273 25346 ft 392 kts 59°
2026-04-12 15:18 56.33542 40.27427 25346 ft 392 kts 59°
2026-04-12 15:18 56.34995 40.31575 25345 ft 392 kts 59°
2026-04-12 15:18 56.36444 40.35750 25350 ft 394 kts 59°
2026-04-12 15:18 56.37903 40.39989 25349 ft 401 kts 59°
2026-04-12 15:19 56.39400 40.44287 25353 ft 409 kts 59°
2026-04-12 15:19 56.40924 40.48657 25357 ft 413 kts 59°
2026-04-12 15:19 56.42455 40.53046 25360 ft 413 kts 59°
2026-04-12 15:19 56.43982 40.57441 25355 ft 412 kts 59°
2026-04-12 15:20 56.45485 40.61857 25355 ft 412 kts 59°
2026-04-12 15:20 56.46977 40.66273 25353 ft 412 kts 60°
2026-04-12 15:20 56.48475 40.70707 25354 ft 413 kts 59°
2026-04-12 15:20 56.49995 40.75129 25343 ft 414 kts 59°
2026-04-12 15:21 56.51501 40.79572 24960 ft 410 kts 60°
2026-04-12 15:21 56.52961 40.83924 24581 ft 398 kts 59°
2026-04-12 15:21 56.54396 40.88144 24205 ft 389 kts 59°
2026-04-12 15:21 56.55811 40.92324 23815 ft 389 kts 60°
2026-04-12 15:22 56.57311 40.96390 23372 ft 388 kts 48°
2026-04-12 15:22 56.59452 40.99300 22875 ft 387 kts 24°
2026-04-12 15:22 56.62032 41.00482 22340 ft 383 kts
2026-04-12 15:22 56.64642 40.99827 21812 ft 378 kts 339°
2026-04-12 15:23 56.66916 40.97647 21306 ft 374 kts 326°
2026-04-12 15:23 56.69026 40.94919 20790 ft 371 kts 320°
2026-04-12 15:23 56.70927 40.91809 20280 ft 366 kts 314°
2026-04-12 15:23 56.72676 40.88471 19772 ft 362 kts 311°
2026-04-12 15:24 56.74343 40.85064 19268 ft 359 kts 309°
2026-04-12 15:24 56.75966 40.81620 18777 ft 356 kts 309°
2026-04-12 15:24 56.77575 40.78216 18230 ft 353 kts 309°
2026-04-12 15:24 56.79173 40.74830 17669 ft 350 kts 309°
2026-04-12 15:25 56.80769 40.71493 17126 ft 348 kts 310°
2026-04-12 15:25 56.82363 40.68194 16590 ft 345 kts 310°
2026-04-12 15:25 56.83949 40.64913 16063 ft 343 kts 310°
2026-04-12 15:25 56.85525 40.61657 15536 ft 341 kts 310°
2026-04-12 15:26 56.87087 40.58426 15035 ft 338 kts 310°
2026-04-12 15:26 56.88640 40.55211 14532 ft 337 kts 310°
2026-04-12 15:26 56.90186 40.52001 14021 ft 334 kts 310°
2026-04-12 15:26 56.91699 40.48859 13475 ft 333 kts 310°
2026-04-12 15:27 56.93221 40.45692 12932 ft 331 kts 310°
2026-04-12 15:27 56.94739 40.42535 12394 ft 330 kts 310°
2026-04-12 15:27 56.96250 40.39387 11866 ft 328 kts 310°
2026-04-12 15:27 56.97929 40.36604 11346 ft 327 kts 330°
2026-04-12 15:28 57.00094 40.35455 10851 ft 326 kts 358°
2026-04-12 15:28 57.02301 40.36209 10362 ft 325 kts 25°
2026-04-12 15:28 57.04088 40.38630 9851 ft 318 kts 51°
2026-04-12 15:28 57.05081 40.42159 9316 ft 310 kts 78°
2026-04-12 15:29 57.05092 40.46033 8801 ft 303 kts 105°
2026-04-12 15:29 57.04252 40.49519 8292 ft 297 kts 120°
2026-04-12 15:29 57.03257 40.52814 7782 ft 294 kts 118°
2026-04-12 15:29 57.02435 40.56224 7348 ft 289 kts 111°
2026-04-12 15:30 57.01744 40.59642 6975 ft 283 kts 111°
2026-04-12 15:30 57.01040 40.62989 6588 ft 279 kts 111°
2026-04-12 15:30 57.00343 40.66278 6204 ft 274 kts 111°
2026-04-12 15:30 56.99660 40.69509 5851 ft 269 kts 111°
2026-04-12 15:31 56.99001 40.72698 5507 ft 265 kts 110°
2026-04-12 15:31 56.98351 40.75838 5170 ft 262 kts 110°
2026-04-12 15:31 56.97707 40.78945 4822 ft 259 kts 110°
2026-04-12 15:31 56.97054 40.82004 4475 ft 257 kts 111°
2026-04-12 15:32 56.96405 40.85035 4178 ft 253 kts 111°
2026-04-12 15:32 56.95786 40.87988 4037 ft 244 kts 110°
2026-04-12 15:32 56.95193 40.90815 3995 ft 232 kts 111°
2026-04-12 15:32 56.94306 40.93173 3968 ft 227 kts 143°
2026-04-12 15:33 56.92792 40.94044 3716 ft 236 kts 181°
2026-04-12 15:33 56.91259 40.93065 3478 ft 238 kts 217°
2026-04-12 15:33 56.90313 40.90638 3239 ft 238 kts 253°
2026-04-12 15:33 56.90299 40.87659 3000 ft 237 kts 289°
2026-04-12 15:34 56.90996 40.84949 2864 ft 234 kts 298°
2026-04-12 15:34 56.91747 40.82310 2749 ft 234 kts 299°
2026-04-12 15:34 56.92529 40.79695 2630 ft 234 kts 300°
2026-04-12 15:34 56.93328 40.77100 2474 ft 233 kts 301°
2026-04-12 15:35 56.94120 40.74572 2297 ft 230 kts 301°
2026-04-12 15:35 56.94919 40.72044 2114 ft 228 kts 301°
2026-04-12 15:35 56.95707 40.69558 2019 ft 222 kts 301°
2026-04-12 15:35 56.96466 40.67177 2041 ft 210 kts 302°
2026-04-12 15:36 56.97467 40.65389 2057 ft 200 kts 336°
2026-04-12 15:36 56.98803 40.65095 2036 ft 195 kts 14°
2026-04-12 15:36 56.99933 40.66350 2032 ft 192 kts 52°
2026-04-12 15:36 57.00388 40.68598 2017 ft 191 kts 89°
2026-04-12 15:37 57.00199 40.70981 2008 ft 182 kts 99°
2026-04-12 15:37 57.00008 40.73128 1983 ft 162 kts 98°
2026-04-12 15:37 56.99842 40.75181 1984 ft 164 kts 98°
2026-04-12 15:37 56.99467 40.77148 1986 ft 164 kts 113°
2026-04-12 15:38 56.99026 40.79042 1985 ft 153 kts 112°
2026-04-12 15:38 56.98555 40.80629 1903 ft 138 kts 124°
2026-04-12 15:38 56.98168 40.81552 1753 ft 138 kts 127°
2026-04-12 15:38 56.97608 40.82968 1538 ft 133 kts 121°
2026-04-12 15:39 56.97158 40.84373 1401 ft 125 kts 118°
2026-04-12 15:39 56.96726 40.85717 1209 ft 121 kts 120°
2026-04-12 15:39 56.96291 40.87037 1005 ft 121 kts 119°
2026-04-12 15:39 56.95855 40.88360 807 ft 121 kts 120°
2026-04-12 15:40 56.95423 40.89677 658 ft 120 kts 120°
2026-04-12 15:40 56.94994 40.90971 501 ft 119 kts 120°
2026-04-12 15:40 56.94577 40.92219 414 ft 106 kts 121°
2026-04-12 15:40 56.94239 40.93231 415 ft 79 kts 121°
2026-04-12 15:41 56.94039 40.93832 415 ft 38 kts 121°
2026-04-12 15:41 56.93972 40.94093 415 ft 12 kts 52°
2026-04-12 15:41 56.94046 40.94177 414 ft 9 kts 27°
2026-04-12 15:41 56.94076 40.94208 413 ft 1 kts 32°
2026-04-12 15:42 56.94085 40.94219 413 ft 4 kts 41°
2026-04-12 15:42 56.94084 40.94286 413 ft 8 kts 103°
2026-04-12 15:42 56.94068 40.94390 413 ft 9 kts 104°
2026-04-12 15:43 56.94016 40.94593 411 ft 2 kts 121°
2026-04-12 15:43 56.94016 40.94594 411 ft 0 kts 121°